createdAt,value
2023-02-19T00:04:04.617Z,4
2023-02-19T00:33:02.903Z,4
2023-02-19T01:01:48.499Z,5
2023-02-19T01:30:46.367Z,4
2023-02-19T01:59:51.396Z,4
2023-02-19T02:28:55.343Z,4
2023-02-19T02:57:50.305Z,5
2023-02-19T03:26:58.594Z,6
2023-02-19T03:55:54.010Z,6
2023-02-19T04:25:08.300Z,4
2023-02-19T04:54:04.540Z,1
2023-02-19T05:23:14.374Z,1
2023-02-19T05:52:15.381Z,1
2023-02-19T06:21:17.305Z,1
2023-02-19T06:50:23.435Z,1
2023-02-19T07:19:22.080Z,1
2023-02-19T07:48:26.344Z,1
2023-02-19T08:17:30.501Z,1
2023-02-19T08:46:38.766Z,2
2023-02-19T09:15:50.642Z,10
2023-02-19T09:44:50.104Z,4
2023-02-19T10:14:06.823Z,4
2023-02-19T10:43:18.895Z,13
2023-02-19T11:12:25.695Z,7
2023-02-19T11:41:25.462Z,5
2023-02-19T12:10:29.795Z,6
2023-02-19T12:39:31.496Z,5
2023-02-19T13:08:42.011Z,5
2023-02-19T13:37:07.307Z,4
2023-02-19T14:06:04.476Z,5
2023-02-19T14:35:07.222Z,5
2023-02-19T15:04:17.185Z,6
2023-02-19T15:33:19.935Z,7
2023-02-19T16:02:25.791Z,5
2023-02-19T16:31:06.748Z,4
2023-02-19T17:00:07.215Z,8
2023-02-19T17:29:09.678Z,8
2023-02-19T17:58:23.021Z,8
2023-02-19T18:27:21.662Z,8
2023-02-19T18:55:47.609Z,14
2023-02-19T19:24:07.680Z,17
2023-02-19T19:52:23.246Z,11
2023-02-19T20:20:53.432Z,18
2023-02-19T20:49:16.125Z,13
2023-02-19T21:17:46.403Z,18
2023-02-19T21:45:58.944Z,13
2023-02-19T22:14:15.415Z,13
2023-02-19T22:42:36.264Z,10
2023-02-19T23:10:57.075Z,10
2023-02-19T23:39:12.676Z,11
